Time;durP1;ratioP1;P1;durP2;ratioP2;P2;SDS_P1;SDS_P2;PMS_P1;PMS_P2;Temp;Humidity;BMP_temperature;BMP_pressure;BME280_temperature;BME280_humidity;BME280_pressure;Samples;Min_cycle;Max_cycle;Signal;HPM_P1;HPM_P2
2021/12/16 00:11:02;;;;;;;43.40;21.00;;;0.90;99.90;;;;;;5048705;28;20150;-76
2021/12/16 00:30:06;;;;;;;37.45;19.95;;;0.30;99.90;;;;;;5062483;28;20199;-76
2021/12/16 00:34:58;;;;;;;46.60;20.67;;;0.20;99.90;;;;;;5047889;28;20181;-77
2021/12/16 00:37:26;;;;;;;33.85;19.08;;;0.10;99.90;;;;;;5052038;28;20161;-77
2021/12/16 00:39:53;;;;;;;38.58;19.45;;;-0.10;99.90;;;;;;5050522;28;20168;-75
2021/12/16 00:43:13;;;;;;;40.70;20.27;;;-0.10;99.90;;;;;;5051731;28;20209;-76
2021/12/16 00:47:50;;;;;;;36.95;21.08;;;-0.20;99.90;;;;;;5051697;28;20177;-76
2021/12/16 00:54:07;;;;;;;39.30;17.98;;;-0.20;99.90;;;;;;5051712;28;20149;-76
2021/12/16 00:55:56;;;;;;;36.85;19.02;;;-0.30;99.90;;;;;;5051605;28;20200;-76
2021/12/16 00:58:30;;;;;;;35.25;20.45;;;-0.40;99.90;;;;;;5044656;28;20225;-76
2021/12/16 01:01:07;;;;;;;35.35;18.08;;;-0.50;99.90;;;;;;5031549;28;20155;-76
2021/12/16 01:34:13;;;;;;;33.75;18.10;;;-0.80;99.90;;;;;;4968664;28;20199;-76
2021/12/16 01:47:44;;;;;;;36.42;18.67;;;-0.20;99.90;;;;;;5030560;28;20249;-77
2021/12/16 01:50:22;;;;;;;41.28;19.52;;;0.00;99.90;;;;;;5030414;28;20221;-76
2021/12/16 01:55:30;;;;;;;38.65;18.95;;;0.10;99.90;;;;;;5030600;28;20262;-76
2021/12/16 01:58:09;;;;;;;36.95;19.05;;;0.20;99.90;;;;;;5030351;28;20305;-76
2021/12/16 02:01:11;;;;;;;29.55;18.73;;;0.20;99.90;;;;;;5030481;28;20172;-76
2021/12/16 02:03:46;;;;;;;37.63;19.67;;;0.30;99.90;;;;;;5030446;28;20165;-76
2021/12/16 02:08:51;;;;;;;45.42;20.73;;;0.30;99.90;;;;;;5030465;28;20163;-76
2021/12/16 02:35:44;;;;;;;35.20;17.50;;;0.30;99.90;;;;;;5030048;28;20204;-76
2021/12/16 02:38:14;;;;;;;41.17;19.10;;;0.20;99.90;;;;;;5029999;28;20154;-76
2021/12/16 02:40:41;;;;;;;39.95;18.52;;;0.10;99.90;;;;;;5029850;28;20154;-76
2021/12/16 02:43:28;;;;;;;33.83;16.60;;;0.10;99.90;;;;;;5011598;28;20244;-75
2021/12/16 02:48:42;;;;;;;32.90;17.45;;;-0.10;99.90;;;;;;5029910;28;20217;-77
2021/12/16 02:51:18;;;;;;;29.10;16.33;;;0.00;99.90;;;;;;5029607;28;20158;-77
2021/12/16 02:53:51;;;;;;;27.58;16.40;;;-0.10;99.90;;;;;;5029651;28;20153;-77
2021/12/16 02:56:17;;;;;;;36.47;15.88;;;-0.20;99.90;;;;;;5029474;28;20229;-77
2021/12/16 02:58:48;;;;;;;26.23;16.15;;;-0.30;99.90;;;;;;5029424;28;20238;-76
2021/12/16 03:01:29;;;;;;;38.55;16.33;;;-0.30;99.90;;;;;;5011860;28;20178;-76
2021/12/16 03:03:56;;;;;;;26.67;15.35;;;-0.30;99.90;;;;;;5029534;28;20162;-77
2021/12/16 03:06:23;;;;;;;25.15;15.32;;;-0.30;99.90;;;;;;5029444;28;20189;-77
2021/12/16 03:08:50;;;;;;;31.08;17.63;;;-0.30;99.90;;;;;;5029474;28;20154;-76
2021/12/16 03:11:37;;;;;;;29.85;17.27;;;-0.30;99.90;;;;;;5011618;28;20256;-77
2021/12/16 03:22:10;;;;;;;24.73;13.88;;;-0.70;99.90;;;;;;5029277;28;20218;-76
2021/12/16 03:25:03;;;;;;;28.42;15.70;;;-0.80;99.90;;;;;;5029259;28;20205;-76
2021/12/16 03:27:32;;;;;;;24.40;15.05;;;-0.90;99.90;;;;;;5029058;28;20296;-76
2021/12/16 03:30:51;;;;;;;24.77;14.70;;;-0.90;99.90;;;;;;5011441;28;20165;-75
2021/12/16 03:37:53;;;;;;;26.63;14.75;;;-1.10;99.90;;;;;;5029183;28;20164;-77
2021/12/16 03:40:21;;;;;;;30.80;16.30;;;-1.10;99.90;;;;;;5029201;28;20184;-77
2021/12/16 03:42:51;;;;;;;29.05;13.63;;;-1.20;99.90;;;;;;5029100;28;20209;-77
2021/12/16 03:48:09;;;;;;;23.20;13.65;;;-1.10;99.90;;;;;;5029075;28;20205;-77
2021/12/16 03:50:36;;;;;;;30.02;14.52;;;-1.10;99.90;;;;;;5028921;28;20177;-77
2021/12/16 03:53:04;;;;;;;28.63;13.95;;;-1.00;99.90;;;;;;5029275;28;20151;-77
2021/12/16 03:55:30;;;;;;;25.70;14.05;;;-1.00;99.90;;;;;;5032535;28;20261;-77
2021/12/16 03:57:57;;;;;;;24.75;13.65;;;-0.90;99.90;;;;;;5032228;28;20225;-78
2021/12/16 04:00:29;;;;;;;26.45;14.02;;;-1.00;99.90;;;;;;5032449;28;20206;-77
2021/12/16 04:02:57;;;;;;;30.85;15.18;;;-1.10;99.90;;;;;;5032555;28;20158;-77
2021/12/16 04:05:23;;;;;;;25.63;14.05;;;-1.10;99.90;;;;;;5032546;28;20650;-77
2021/12/16 04:07:50;;;;;;;23.92;14.60;;;-1.20;99.90;;;;;;5032627;28;20168;-79
2021/12/16 04:10:34;;;;;;;24.10;13.73;;;-1.20;99.90;;;;;;5032251;28;20525;-76
2021/12/16 04:13:05;;;;;;;23.98;11.88;;;-1.30;99.90;;;;;;5032464;28;20155;-76
2021/12/16 04:15:32;;;;;;;24.67;13.18;;;-1.30;99.90;;;;;;5032350;28;20259;-76
2021/12/16 04:17:58;;;;;;;22.05;13.65;;;-1.40;99.90;;;;;;5032250;28;20177;-76
2021/12/16 04:20:26;;;;;;;25.55;14.23;;;-1.30;99.90;;;;;;5032311;28;20212;-77
2021/12/16 04:22:52;;;;;;;29.95;15.18;;;-1.20;99.90;;;;;;5032108;28;20185;-77
2021/12/16 04:25:23;;;;;;;25.67;14.38;;;-1.20;99.90;;;;;;5031973;28;20201;-76
2021/12/16 04:27:53;;;;;;;24.73;14.50;;;-1.10;99.90;;;;;;5031824;28;20628;-76
2021/12/16 04:30:23;;;;;;;24.23;13.70;;;-1.10;99.90;;;;;;5032468;28;20159;-79
2021/12/16 04:32:49;;;;;;;25.30;13.45;;;-1.00;99.90;;;;;;5035530;28;20522;-79
2021/12/16 04:35:17;;;;;;;19.88;13.40;;;-1.10;99.90;;;;;;5037682;28;20189;-79
2021/12/16 04:37:43;;;;;;;24.40;13.80;;;-1.10;99.90;;;;;;5032915;28;20221;-79
2021/12/16 04:40:11;;;;;;;22.35;13.43;;;-1.10;99.90;;;;;;5031679;28;20608;-77
2021/12/16 04:42:38;;;;;;;24.80;15.15;;;-1.00;99.90;;;;;;5031955;28;20159;-79
2021/12/16 04:45:07;;;;;;;29.02;15.40;;;-1.00;99.90;;;;;;5031444;28;20257;-78
2021/12/16 04:47:33;;;;;;;24.42;14.05;;;-0.90;99.90;;;;;;5031782;28;20618;-76
2021/12/16 04:49:59;;;;;;;21.58;12.68;;;-0.90;99.90;;;;;;5031637;28;20182;-76
2021/12/16 04:52:26;;;;;;;23.90;13.93;;;-1.00;99.90;;;;;;5013771;28;20170;-76
2021/12/16 04:54:51;;;;;;;29.33;15.23;;;-1.10;99.90;;;;;;5013848;28;20193;-77
2021/12/16 04:57:17;;;;;;;22.05;13.35;;;-1.10;99.90;;;;;;5031611;28;20547;-77
2021/12/16 04:59:44;;;;;;;26.08;13.30;;;-1.10;99.90;;;;;;5045622;28;20229;-77
2021/12/16 05:02:23;;;;;;;23.70;13.07;;;-1.00;99.90;;;;;;5051705;28;20168;-78
2021/12/16 05:04:49;;;;;;;26.30;13.25;;;-0.90;99.90;;;;;;5050930;28;20161;-76
2021/12/16 05:07:17;;;;;;;29.17;15.07;;;-0.70;99.90;;;;;;5049670;28;20185;-77
2021/12/16 05:12:24;;;;;;;28.55;14.20;;;-0.70;99.90;;;;;;5051192;28;20177;-78
2021/12/16 05:14:51;;;;;;;18.50;13.52;;;-0.80;99.90;;;;;;5050323;28;20184;-78
2021/12/16 05:17:32;;;;;;;24.95;13.95;;;-0.90;99.90;;;;;;5051199;28;20162;-78
2021/12/16 05:20:03;;;;;;;17.80;12.60;;;-1.00;99.90;;;;;;5051247;28;20179;-76
2021/12/16 05:25:25;;;;;;;23.85;14.30;;;-1.00;99.90;;;;;;5050818;28;20172;-76
2021/12/16 05:27:51;;;;;;;21.45;12.43;;;-1.00;99.90;;;;;;5050878;28;20196;-76
2021/12/16 05:30:17;;;;;;;21.92;13.15;;;-1.00;99.90;;;;;;5049341;28;20174;-77
2021/12/16 05:32:45;;;;;;;21.70;13.23;;;-1.10;99.90;;;;;;5049526;28;20215;-79
2021/12/16 05:35:15;;;;;;;23.08;13.93;;;-1.10;99.90;;;;;;5050826;28;20181;-78
2021/12/16 05:37:43;;;;;;;23.73;14.05;;;-1.20;99.90;;;;;;5051194;28;20184;-77
2021/12/16 05:40:10;;;;;;;24.30;14.43;;;-1.20;99.90;;;;;;5050884;28;20173;-78
2021/12/16 05:42:37;;;;;;;26.83;14.10;;;-1.30;99.90;;;;;;5050840;28;20190;-77
2021/12/16 05:45:06;;;;;;;25.25;13.32;;;-1.20;99.90;;;;;;5050773;28;20184;-78
2021/12/16 05:47:33;;;;;;;28.77;14.00;;;-1.20;99.90;;;;;;5050285;28;20185;-75
2021/12/16 05:49:59;;;;;;;22.98;13.32;;;-1.30;99.90;;;;;;5050196;28;20666;-75
2021/12/16 05:52:25;;;;;;;20.05;13.75;;;-1.20;99.90;;;;;;5050035;28;20220;-75
2021/12/16 05:54:55;;;;;;;28.67;15.38;;;-1.30;99.90;;;;;;5052133;28;20161;-78
2021/12/16 05:57:22;;;;;;;32.85;17.92;;;-1.20;99.90;;;;;;5050401;28;20185;-78
2021/12/16 05:59:48;;;;;;;34.63;16.33;;;-1.30;99.90;;;;;;5048610;28;20228;-77
2021/12/16 06:02:15;;;;;;;36.47;16.52;;;-1.30;99.90;;;;;;5050233;28;20165;-80
2021/12/16 06:04:41;;;;;;;33.13;15.52;;;-1.30;99.90;;;;;;5051156;28;20231;-77
2021/12/16 06:07:07;;;;;;;33.47;15.57;;;-1.30;99.90;;;;;;5049923;28;20195;-79
2021/12/16 06:09:34;;;;;;;43.50;20.23;;;-1.30;99.90;;;;;;5049919;28;20165;-80
2021/12/16 06:12:01;;;;;;;49.75;22.73;;;-1.30;99.90;;;;;;5049808;28;20174;-81
2021/12/16 06:14:45;;;;;;;34.20;16.67;;;-1.30;99.90;;;;;;5049645;28;20189;-78
2021/12/16 06:28:04;;;;;;;30.15;14.50;;;-0.90;99.90;;;;;;5050211;28;20497;-78
2021/12/16 06:30:34;;;;;;;28.13;16.08;;;-0.90;99.90;;;;;;5050435;28;20176;-79
2021/12/16 06:33:01;;;;;;;30.98;16.13;;;-0.90;99.90;;;;;;5049373;28;20185;-78
2021/12/16 06:35:27;;;;;;;27.80;14.48;;;-0.90;99.90;;;;;;5048955;28;20180;-78
2021/12/16 06:37:54;;;;;;;26.27;15.35;;;-0.90;99.90;;;;;;5052210;28;20188;-79
2021/12/16 06:40:20;;;;;;;23.63;14.63;;;-0.90;99.90;;;;;;5052126;28;20160;-78
2021/12/16 06:42:48;;;;;;;23.25;14.63;;;-0.80;99.90;;;;;;5049997;28;20193;-80
2021/12/16 06:45:21;;;;;;;27.35;14.48;;;-0.80;99.90;;;;;;5048598;28;20192;-79
2021/12/16 06:47:53;;;;;;;22.83;14.75;;;-0.80;99.90;;;;;;5048999;28;20146;-75
2021/12/16 06:50:27;;;;;;;27.67;15.13;;;-0.80;99.90;;;;;;5049490;28;20150;-79
2021/12/16 06:52:57;;;;;;;25.25;14.05;;;-0.80;99.90;;;;;;5049296;28;20192;-80
2021/12/16 06:55:43;;;;;;;23.05;12.68;;;-1.00;99.90;;;;;;5049067;28;20150;-80
2021/12/16 06:58:18;;;;;;;23.73;11.70;;;-1.00;99.90;;;;;;5045784;28;20145;-79
2021/12/16 07:00:47;;;;;;;21.42;12.57;;;-1.00;99.90;;;;;;5029339;28;20156;-80
2021/12/16 07:03:18;;;;;;;19.67;13.02;;;-0.90;99.90;;;;;;5028855;28;20200;-79
2021/12/16 07:05:47;;;;;;;21.77;12.57;;;-1.00;99.90;;;;;;5029307;28;20186;-79
2021/12/16 07:08:17;;;;;;;21.75;12.00;;;-1.10;99.90;;;;;;5028951;28;20154;-79
2021/12/16 07:10:46;;;;;;;23.58;14.15;;;-1.00;99.90;;;;;;5011337;28;20163;-79
2021/12/16 07:13:20;;;;;;;24.83;13.52;;;-1.00;99.90;;;;;;5028801;28;20208;-80
2021/12/16 07:15:48;;;;;;;25.92;12.82;;;-1.00;99.90;;;;;;5028835;28;20582;-78
2021/12/16 07:18:14;;;;;;;28.02;12.35;;;-1.10;99.90;;;;;;5028699;28;20253;-79
2021/12/16 07:20:41;;;;;;;24.65;13.73;;;-1.10;99.90;;;;;;5029161;28;20189;-79
2021/12/16 07:23:09;;;;;;;26.27;13.52;;;-1.10;99.90;;;;;;5029088;28;20201;-80
2021/12/16 07:25:35;;;;;;;22.55;12.45;;;-1.00;99.90;;;;;;5029007;28;20221;-80
2021/12/16 07:28:04;;;;;;;30.88;13.05;;;-1.00;99.90;;;;;;5029120;28;20185;-80
2021/12/16 07:30:31;;;;;;;23.67;12.60;;;-0.90;99.90;;;;;;5032944;28;20603;-79
2021/12/16 07:32:57;;;;;;;25.30;13.90;;;-0.90;99.90;;;;;;5033224;28;20196;-77
2021/12/16 07:35:26;;;;;;;27.55;13.02;;;-0.90;99.90;;;;;;5015344;28;20229;-80
2021/12/16 07:37:52;;;;;;;29.00;14.07;;;-0.90;99.90;;;;;;5033669;28;20181;-81
2021/12/16 07:40:22;;;;;;;25.05;14.23;;;-0.90;99.90;;;;;;5033543;28;20165;-78
2021/12/16 07:45:26;;;;;;;32.70;15.63;;;-0.70;99.90;;;;;;5030693;28;20239;-79
2021/12/16 07:47:52;;;;;;;25.75;14.23;;;-0.60;99.90;;;;;;5032111;28;20174;-79
2021/12/16 07:50:19;;;;;;;29.70;15.00;;;-0.50;99.90;;;;;;5033129;28;20177;-80
2021/12/16 07:52:45;;;;;;;28.73;15.77;;;-0.40;99.90;;;;;;5032543;28;20190;-79
2021/12/16 07:55:13;;;;;;;29.33;17.88;;;-0.30;99.90;;;;;;5032931;28;20158;-79
2021/12/16 07:57:40;;;;;;;36.20;17.85;;;0.10;99.90;;;;;;5032943;28;20249;-79
2021/12/16 08:00:23;;;;;;;35.80;19.25;;;0.30;99.90;;;;;;5050067;28;20704;-80
2021/12/16 08:02:50;;;;;;;43.97;22.52;;;0.70;99.90;;;;;;5055294;28;20200;-80
2021/12/16 08:05:19;;;;;;;42.97;22.33;;;1.20;99.90;;;;;;5055940;28;20217;-79
2021/12/16 08:07:45;;;;;;;42.03;25.65;;;1.00;99.90;;;;;;5055193;28;20196;-80
2021/12/16 08:10:16;;;;;;;66.25;33.28;;;2.30;99.90;;;;;;5055134;28;20173;-79
2021/12/16 08:12:42;;;;;;;87.22;39.00;;;4.70;99.90;;;;;;5056852;28;20252;-79
2021/12/16 08:15:09;;;;;;;77.30;38.92;;;6.30;99.90;;;;;;5054570;28;20173;-80
2021/12/16 08:17:35;;;;;;;77.72;40.78;;;6.10;99.90;;;;;;5050659;28;20188;-79
2021/12/16 08:20:04;;;;;;;78.80;40.03;;;5.80;99.90;;;;;;5051868;28;20153;-80
2021/12/16 08:22:30;;;;;;;70.32;35.85;;;5.40;99.90;;;;;;5051696;28;20196;-79
2021/12/16 08:24:56;;;;;;;56.38;30.27;;;4.60;99.90;;;;;;5050558;28;20204;-79
2021/12/16 08:27:22;;;;;;;43.03;26.40;;;3.90;99.90;;;;;;5051917;28;20189;-79
2021/12/16 08:29:48;;;;;;;45.78;23.92;;;3.20;99.90;;;;;;5051746;28;20177;-78
2021/12/16 08:32:15;;;;;;;39.63;22.65;;;3.20;99.90;;;;;;5051780;28;20160;-78
2021/12/16 08:34:43;;;;;;;31.58;21.10;;;3.10;99.90;;;;;;5050164;28;20193;-79
2021/12/16 08:37:09;;;;;;;36.05;19.58;;;2.70;99.90;;;;;;5051025;28;20169;-77
2021/12/16 08:39:37;;;;;;;32.17;18.15;;;2.40;99.90;;;;;;5049317;28;20185;-78
2021/12/16 08:42:05;;;;;;;31.08;18.55;;;2.10;99.90;;;;;;5051358;28;20162;-78
2021/12/16 08:44:32;;;;;;;36.38;19.77;;;2.00;99.90;;;;;;5051015;28;20203;-79
2021/12/16 08:47:05;;;;;;;33.15;19.33;;;1.90;99.90;;;;;;5050881;28;20200;-79
2021/12/16 08:49:31;;;;;;;34.47;19.50;;;1.90;99.90;;;;;;5051651;28;20506;-78
2021/12/16 08:52:00;;;;;;;34.25;18.48;;;1.90;99.90;;;;;;5051552;28;20164;-77
2021/12/16 08:54:26;;;;;;;36.05;20.02;;;1.90;99.90;;;;;;5051413;28;20189;-76
2021/12/16 08:56:53;;;;;;;30.45;18.48;;;2.10;99.90;;;;;;5066691;28;20189;-77
2021/12/16 08:59:21;;;;;;;41.15;19.65;;;2.10;99.90;;;;;;5049933;28;20229;-77
2021/12/16 09:01:52;;;;;;;37.70;21.27;;;2.10;99.90;;;;;;5049817;28;20635;-77
2021/12/16 09:04:19;;;;;;;47.10;27.88;;;2.00;99.90;;;;;;5051125;28;20246;-76
2021/12/16 09:06:47;;;;;;;75.15;38.60;;;2.80;99.90;;;;;;5049770;28;20197;-79
2021/12/16 09:09:13;;;;;;;89.78;46.95;;;4.70;99.90;;;;;;5051133;28;20193;-79
2021/12/16 09:11:59;;;;;;;114.80;57.35;;;6.30;99.90;;;;;;5049136;28;20180;-79
2021/12/16 09:14:24;;;;;;;119.85;60.97;;;6.70;99.90;;;;;;5050951;28;20177;-81
2021/12/16 09:16:50;;;;;;;107.30;55.80;;;7.00;99.90;;;;;;5051352;28;20160;-79
2021/12/16 09:19:16;;;;;;;71.97;39.10;;;6.30;99.90;;;;;;5054922;28;20265;-74
2021/12/16 09:21:42;;;;;;;57.58;35.15;;;5.40;99.90;;;;;;5050723;28;20172;-78
2021/12/16 09:24:09;;;;;;;53.83;30.85;;;5.10;99.90;;;;;;5050924;28;20189;-77
2021/12/16 09:26:35;;;;;;;42.60;29.23;;;4.60;99.90;;;;;;5051010;28;20208;-79
2021/12/16 09:29:03;;;;;;;56.88;34.80;;;4.00;99.90;;;;;;5052260;28;20674;-79
2021/12/16 09:31:30;;;;;;;61.60;34.70;;;5.00;99.90;;;;;;5048595;28;20158;-80
2021/12/16 09:34:04;;;;;;;34.50;23.45;;;6.60;99.90;;;;;;5048209;28;20255;-79
2021/12/16 09:36:31;;;;;;;30.05;19.40;;;7.80;99.90;;;;;;5030936;28;20178;-79
2021/12/16 09:38:57;;;;;;;24.42;16.48;;;8.50;99.90;;;;;;5041217;28;20192;-78
2021/12/16 09:41:25;;;;;;;20.67;14.77;;;9.00;99.90;;;;;;5040970;28;20166;-79
2021/12/16 09:43:53;;;;;;;25.30;14.85;;;9.10;99.90;;;;;;5041169;28;20189;-77
2021/12/16 09:46:23;;;;;;;29.02;14.45;;;9.00;99.90;;;;;;5043357;28;20189;-79
2021/12/16 09:48:50;;;;;;;23.05;15.15;;;9.20;99.90;;;;;;5042872;28;20166;-78
2021/12/16 09:51:22;;;;;;;22.80;15.50;;;9.70;99.90;;;;;;5037203;28;20165;-78
2021/12/16 09:53:56;;;;;;;21.42;12.90;;;10.50;99.90;;;;;;5038197;28;20249;-78
2021/12/16 09:56:25;;;;;;;21.45;13.07;;;10.10;99.90;;;;;;5035169;28;20181;-76
2021/12/16 09:58:52;;;;;;;22.70;13.80;;;10.40;99.90;;;;;;5031344;28;20219;-76
2021/12/16 10:01:20;;;;;;;18.98;12.75;;;11.30;99.90;;;;;;5021233;28;20174;-76
2021/12/16 10:03:48;;;;;;;20.20;11.93;;;12.10;99.90;;;;;;5022617;28;20194;-78
2021/12/16 10:06:15;;;;;;;18.00;11.93;;;11.90;99.90;;;;;;5029884;28;20257;-77
2021/12/16 10:08:42;;;;;;;17.65;11.15;;;11.40;99.90;;;;;;5029762;28;20257;-78
2021/12/16 10:11:09;;;;;;;19.73;11.35;;;11.90;99.90;;;;;;5030004;28;20163;-78
2021/12/16 10:19:35;;;;;;;15.40;9.77;;;11.50;99.90;;;;;;4893196;29;20197;-79
2021/12/16 10:22:32;;;;;;;15.27;9.82;;;12.60;99.90;;;;;;4944761;29;20189;-79
2021/12/16 10:25:30;;;;;;;14.77;9.52;;;12.30;99.90;;;;;;4949721;29;20200;-78
2021/12/16 10:28:27;;;;;;;14.85;8.52;;;11.80;99.90;;;;;;4950110;29;20183;-80
2021/12/16 10:31:03;;;;;;;18.52;10.50;;;11.30;99.90;;;;;;4947035;29;20200;-78
2021/12/16 10:33:49;;;;;;;19.20;10.23;;;12.00;99.90;;;;;;4961258;28;20276;-78
2021/12/16 10:36:22;;;;;;;21.63;10.40;;;11.60;99.90;;;;;;4952878;29;20207;-78
2021/12/16 10:38:55;;;;;;;14.68;9.75;;;11.60;99.90;;;;;;4962087;29;20196;-78
2021/12/16 10:41:29;;;;;;;17.70;10.48;;;12.30;99.90;;;;;;4963855;29;20184;-80
2021/12/16 10:44:17;;;;;;;15.10;9.93;;;12.60;99.90;;;;;;4968685;29;20304;-77
2021/12/16 10:46:50;;;;;;;14.18;9.20;;;12.50;99.90;;;;;;4968432;29;20222;-78
2021/12/16 10:49:20;;;;;;;19.00;11.40;;;12.30;99.90;;;;;;4968614;29;20164;-78
2021/12/16 10:51:49;;;;;;;20.10;10.93;;;11.50;99.90;;;;;;4972548;28;20188;-77
2021/12/16 10:54:22;;;;;;;17.88;10.30;;;11.90;99.90;;;;;;5009125;28;20205;-78
2021/12/16 10:56:53;;;;;;;13.38;9.68;;;12.20;99.90;;;;;;5008954;28;20163;-78
2021/12/16 10:59:33;;;;;;;15.90;9.68;;;12.40;99.90;;;;;;5021078;28;20260;-77
2021/12/16 11:02:05;;;;;;;18.35;9.68;;;11.80;99.90;;;;;;5011206;28;20352;-76
2021/12/16 11:04:42;;;;;;;13.35;8.00;;;12.00;99.90;;;;;;5028133;28;20205;-76
2021/12/16 11:07:08;;;;;;;18.05;8.93;;;12.10;99.90;;;;;;5036886;28;20192;-76
2021/12/16 11:09:40;;;;;;;13.80;8.00;;;12.20;99.90;;;;;;5048733;28;20613;-76
2021/12/16 11:12:33;;;;;;;10.20;7.30;;;12.50;99.90;;;;;;5041169;28;20209;-77
2021/12/16 11:15:08;;;;;;;13.80;8.10;;;12.40;99.90;;;;;;5009259;28;20289;-77
2021/12/16 11:17:49;;;;;;;12.23;7.07;;;12.60;99.90;;;;;;5009197;28;20158;-77
2021/12/16 11:20:27;;;;;;;13.13;8.00;;;13.00;99.90;;;;;;5009394;28;20165;-76
2021/12/16 11:23:00;;;;;;;12.45;7.35;;;12.70;99.90;;;;;;4991373;28;20174;-77
2021/12/16 11:25:46;;;;;;;17.90;6.93;;;12.10;99.90;;;;;;5009181;28;20194;-77
2021/12/16 11:28:16;;;;;;;13.77;7.18;;;12.00;99.90;;;;;;5009327;28;20181;-78
2021/12/16 11:30:54;;;;;;;10.90;6.28;;;11.60;99.90;;;;;;5009049;28;20178;-77
2021/12/16 11:33:26;;;;;;;14.50;7.75;;;12.30;99.90;;;;;;5013220;28;20264;-77
2021/12/16 11:35:56;;;;;;;18.15;8.15;;;12.60;99.90;;;;;;5009502;28;20197;-77
2021/12/16 11:38:24;;;;;;;15.30;8.00;;;12.00;99.90;;;;;;5028766;28;20226;-77
2021/12/16 11:41:07;;;;;;;16.45;8.68;;;12.00;99.90;;;;;;5028877;28;20158;-77
2021/12/16 11:43:50;;;;;;;12.13;7.90;;;12.20;99.90;;;;;;5028150;28;20165;-76
2021/12/16 11:46:32;;;;;;;13.07;7.78;;;12.80;99.90;;;;;;5028300;28;20520;-76
2021/12/16 11:49:16;;;;;;;16.25;7.82;;;12.30;99.90;;;;;;5028635;28;20161;-77
2021/12/16 11:51:45;;;;;;;15.40;7.68;;;13.10;99.90;;;;;;5028489;28;20159;-77
2021/12/16 11:54:49;;;;;;;10.95;6.57;;;12.90;99.90;;;;;;5028450;28;20158;-77
2021/12/16 11:57:28;;;;;;;11.90;5.80;;;12.70;99.90;;;;;;4929593;29;20181;-77
2021/12/16 11:59:56;;;;;;;14.10;6.93;;;12.80;99.90;;;;;;4962198;29;20672;-76
2021/12/16 12:02:28;;;;;;;11.77;6.03;;;12.10;99.90;;;;;;4967942;29;20319;-77
2021/12/16 12:05:20;;;;;;;8.85;5.88;;;12.30;99.90;;;;;;4967682;28;20191;-77
2021/12/16 12:07:53;;;;;;;14.98;5.68;;;12.80;99.90;;;;;;4963921;28;20221;-76
2021/12/16 12:10:39;;;;;;;9.80;5.32;;;13.70;99.90;;;;;;4967901;29;20642;-76
2021/12/16 12:13:08;;;;;;;10.45;5.28;;;14.10;99.90;;;;;;4967472;29;20235;-76
2021/12/16 12:15:54;;;;;;;13.32;6.28;;;13.80;99.90;;;;;;4969244;28;20160;-76
2021/12/16 12:18:44;;;;;;;9.32;5.65;;;13.80;99.90;;;;;;4954410;29;20211;-77
2021/12/16 12:21:24;;;;;;;13.43;5.55;;;13.30;99.90;;;;;;4971638;29;20179;-77
2021/12/16 12:24:01;;;;;;;8.82;5.65;;;13.50;99.90;;;;;;4971551;28;20171;-77
2021/12/16 12:26:30;;;;;;;9.75;5.38;;;12.50;99.90;;;;;;4971316;29;20199;-77
2021/12/16 12:29:02;;;;;;;9.45;5.75;;;11.00;99.90;;;;;;4971122;28;20750;-76
2021/12/16 12:31:31;;;;;;;15.80;5.80;;;10.20;99.90;;;;;;5020569;28;20185;-79
2021/12/16 12:33:58;;;;;;;14.75;5.50;;;9.90;99.90;;;;;;5052247;28;20188;-77
2021/12/16 12:36:25;;;;;;;15.68;5.47;;;9.50;99.90;;;;;;5045188;28;20212;-77
2021/12/16 12:38:52;;;;;;;10.55;5.03;;;9.80;99.90;;;;;;5041047;28;20763;-79
2021/12/16 12:41:19;;;;;;;10.77;5.82;;;9.30;99.90;;;;;;5043695;28;20345;-80
2021/12/16 12:43:45;;;;;;;8.55;5.25;;;9.20;99.90;;;;;;5050890;28;20200;-75
2021/12/16 12:46:13;;;;;;;25.80;5.85;;;9.10;99.90;;;;;;5049968;28;20201;-75
2021/12/16 12:48:42;;;;;;;13.10;5.65;;;9.00;99.90;;;;;;5051254;28;20185;-77
2021/12/16 12:51:09;;;;;;;8.85;5.25;;;8.60;99.90;;;;;;5051262;28;20177;-76
2021/12/16 12:53:46;;;;;;;9.48;5.38;;;8.10;99.90;;;;;;5041255;28;20221;-76
2021/12/16 12:56:22;;;;;;;9.93;6.15;;;7.60;99.90;;;;;;5049895;28;20196;-76
2021/12/16 12:58:54;;;;;;;13.68;6.80;;;7.30;99.90;;;;;;5043321;28;20332;-76
2021/12/16 13:01:35;;;;;;;28.52;7.78;;;7.20;99.90;;;;;;5013562;28;20182;-76
2021/12/16 13:04:05;;;;;;;15.20;6.55;;;7.20;99.90;;;;;;5031312;28;20637;-75
2021/12/16 13:06:30;;;;;;;10.93;6.15;;;7.40;99.90;;;;;;5031079;28;20200;-75
2021/12/16 13:08:56;;;;;;;16.80;6.05;;;7.30;99.90;;;;;;5031190;28;20249;-76
2021/12/16 13:11:30;;;;;;;10.27;5.70;;;7.20;99.90;;;;;;5031319;28;20169;-76
2021/12/16 13:14:13;;;;;;;9.52;6.18;;;7.20;99.90;;;;;;5030965;28;20169;-76
2021/12/16 13:28:04;;;;;;;11.07;5.43;;;7.10;99.90;;;;;;5030451;28;20232;-76
2021/12/16 13:30:42;;;;;;;9.90;5.57;;;7.00;99.90;;;;;;5030721;28;20212;-75
2021/12/16 13:33:23;;;;;;;9.32;5.93;;;7.00;99.90;;;;;;5030633;28;20177;-76
2021/12/16 13:36:01;;;;;;;8.07;5.05;;;6.90;99.90;;;;;;5030640;28;20181;-75
2021/12/16 13:38:40;;;;;;;10.90;4.82;;;6.80;99.90;;;;;;5030674;28;20193;-75
2021/12/16 13:41:14;;;;;;;10.60;5.78;;;6.90;99.90;;;;;;5030427;28;20158;-75
2021/12/16 13:44:00;;;;;;;13.02;4.57;;;6.70;99.90;;;;;;5030387;28;20161;-76
2021/12/16 14:07:27;;;;;;;9.60;4.72;;;6.20;99.90;;;;;;4906737;29;20216;-76
2021/12/16 14:09:51;;;;;;;7.70;5.25;;;6.20;99.90;;;;;;4929084;29;20310;-76
2021/12/16 14:23:29;;;;;;;11.93;5.90;;;6.00;99.90;;;;;;4911987;29;20173;-76
2021/12/16 14:26:16;;;;;;;6.55;4.75;;;5.80;99.90;;;;;;4911928;29;20228;-75
2021/12/16 14:50:10;;;;;;;15.70;6.60;;;4.80;99.90;;;;;;5009686;28;20173;-75
2021/12/16 14:52:36;;;;;;;8.85;5.13;;;4.70;99.90;;;;;;5009520;28;20166;-75
2021/12/16 14:55:09;;;;;;;11.50;5.43;;;4.60;99.90;;;;;;5009436;28;20178;-75
2021/12/16 14:57:56;;;;;;;23.67;6.10;;;4.60;99.90;;;;;;5009407;28;20170;-75
2021/12/16 15:00:39;;;;;;;14.98;6.63;;;4.60;99.90;;;;;;5011221;28;20197;-75
2021/12/16 15:03:14;;;;;;;12.98;6.28;;;4.90;99.90;;;;;;5009194;28;20159;-76
2021/12/16 15:05:47;;;;;;;14.38;6.68;;;5.00;99.90;;;;;;5009294;28;20206;-75
2021/12/16 15:11:31;;;;;;;20.60;7.28;;;4.70;99.90;;;;;;4998309;28;20186;-76
2021/12/16 15:14:02;;;;;;;29.08;15.85;;;4.60;99.90;;;;;;5009242;28;20158;-76
2021/12/16 15:43:55;;;;;;;12.63;7.10;;;4.60;99.90;;;;;;5027362;28;20238;-77
2021/12/16 15:46:25;;;;;;;13.68;7.93;;;4.70;99.90;;;;;;5022144;28;20198;-76
2021/12/16 15:48:52;;;;;;;12.15;7.40;;;4.60;99.90;;;;;;5025083;28;20944;-76
2021/12/16 15:51:20;;;;;;;14.15;8.05;;;4.60;99.90;;;;;;5022794;28;20250;-77
2021/12/16 15:53:56;;;;;;;11.75;7.32;;;4.70;99.90;;;;;;5021025;28;20185;-76
2021/12/16 15:56:29;;;;;;;17.70;7.13;;;4.60;99.90;;;;;;5021203;28;20227;-75
2021/12/16 15:58:57;;;;;;;11.52;7.05;;;4.50;99.90;;;;;;5022480;28;20248;-76
2021/12/16 16:01:30;;;;;;;14.88;7.57;;;4.40;99.90;;;;;;5022311;28;20537;-77
2021/12/16 16:03:59;;;;;;;12.57;7.30;;;4.40;99.90;;;;;;5019542;28;20162;-77
2021/12/16 16:06:26;;;;;;;14.75;6.95;;;4.30;99.90;;;;;;5022093;28;20198;-80
2021/12/16 16:08:56;;;;;;;15.07;7.40;;;4.30;99.90;;;;;;5020703;28;20170;-78
2021/12/16 16:11:29;;;;;;;13.05;7.78;;;4.30;99.90;;;;;;5021696;28;20209;-79
2021/12/16 16:14:00;;;;;;;12.05;7.35;;;4.30;99.90;;;;;;5020610;28;20937;-76
2021/12/16 16:16:34;;;;;;;21.50;7.80;;;4.50;99.90;;;;;;5020799;28;20190;-79
2021/12/16 16:19:03;;;;;;;12.10;7.13;;;4.50;99.90;;;;;;5019670;28;20161;-78
2021/12/16 16:21:42;;;;;;;15.82;7.50;;;4.40;99.90;;;;;;5021874;28;20190;-78
2021/12/16 16:24:19;;;;;;;17.02;7.88;;;4.30;99.90;;;;;;5021762;28;20178;-79
2021/12/16 16:26:47;;;;;;;13.38;6.75;;;4.30;99.90;;;;;;5019355;28;20200;-79
2021/12/16 16:29:17;;;;;;;13.18;7.20;;;4.40;99.90;;;;;;5022075;28;20165;-79
2021/12/16 16:31:44;;;;;;;14.27;8.68;;;4.50;99.90;;;;;;5020758;28;20246;-79
2021/12/16 16:34:16;;;;;;;22.08;9.70;;;4.40;99.90;;;;;;5020470;28;20170;-79
2021/12/16 16:36:45;;;;;;;14.50;8.85;;;4.30;99.90;;;;;;5022544;28;20202;-79
2021/12/16 16:39:17;;;;;;;17.08;9.32;;;4.40;99.90;;;;;;5020154;28;20551;-79
2021/12/16 16:41:50;;;;;;;11.88;8.32;;;4.40;99.90;;;;;;5003251;28;20170;-80
2021/12/16 16:44:19;;;;;;;11.25;7.28;;;4.40;99.90;;;;;;5005016;28;20193;-80
2021/12/16 16:47:06;;;;;;;18.80;7.47;;;4.40;99.90;;;;;;5020476;28;20202;-80
2021/12/16 16:49:48;;;;;;;13.07;7.65;;;4.40;99.90;;;;;;5021403;28;20257;-79
2021/12/16 16:52:24;;;;;;;18.85;7.38;;;4.50;99.90;;;;;;5020151;28;20155;-79
2021/12/16 16:55:00;;;;;;;9.10;6.43;;;4.50;99.90;;;;;;5010360;28;20233;-79
2021/12/16 16:57:32;;;;;;;11.50;5.28;;;4.70;99.90;;;;;;5018561;28;20166;-81
2021/12/16 17:00:12;;;;;;;6.45;4.82;;;4.90;99.90;;;;;;5019553;28;20238;-80
2021/12/16 17:02:44;;;;;;;5.20;3.85;;;5.10;99.90;;;;;;5018721;28;20190;-81